createdAt,value
2018-06-05T00:00:13.765Z,0.00
2018-06-05T00:01:13.577Z,0.00
2018-06-05T00:02:13.638Z,0.00
2018-06-05T00:03:13.701Z,0.00
2018-06-05T00:04:13.764Z,0.00
2018-06-05T00:05:13.826Z,0.00
2018-06-05T00:06:13.888Z,0.00
2018-06-05T00:07:13.951Z,0.00
2018-06-05T00:08:14.012Z,0.00
2018-06-05T00:09:14.075Z,0.00
2018-06-05T00:10:14.136Z,0.00
2018-06-05T00:11:14.201Z,0.00
2018-06-05T00:12:14.262Z,0.00
2018-06-05T00:13:14.325Z,0.00
2018-06-05T00:14:14.387Z,0.00
2018-06-05T00:15:14.447Z,0.00
2018-06-05T00:16:14.663Z,0.00
2018-06-05T00:17:14.574Z,0.00
2018-06-05T00:18:14.634Z,0.00
2018-06-05T00:19:14.698Z,0.00
2018-06-05T00:20:14.759Z,0.00
2018-06-05T00:21:14.824Z,0.00
2018-06-05T00:22:14.910Z,0.00
2018-06-05T00:23:14.944Z,0.00
2018-06-05T00:24:15.008Z,0.00
2018-06-05T00:25:15.070Z,0.00
2018-06-05T00:26:15.133Z,0.00
2018-06-05T00:27:15.194Z,0.00
2018-06-05T00:28:15.257Z,0.00
2018-06-05T00:29:15.320Z,0.00
2018-06-05T00:30:15.380Z,0.00
2018-06-05T00:31:15.443Z,0.00
2018-06-05T00:32:15.505Z,0.00
2018-06-05T00:33:15.570Z,0.00
2018-06-05T00:34:15.781Z,0.00
2018-06-05T00:35:15.691Z,0.00
2018-06-05T00:36:15.754Z,0.00
2018-06-05T00:37:15.817Z,0.00
2018-06-05T00:38:15.877Z,0.00
2018-06-05T00:39:15.940Z,0.00
2018-06-05T00:40:16.008Z,0.00
2018-06-05T00:41:16.066Z,0.00
2018-06-05T00:42:16.127Z,0.00
2018-06-05T00:43:16.190Z,0.00
2018-06-05T00:44:16.252Z,0.00
2018-06-05T00:45:16.314Z,0.00
2018-06-05T00:46:16.377Z,0.00
2018-06-05T00:47:16.439Z,0.00
2018-06-05T00:48:16.499Z,0.00
2018-06-05T00:49:16.562Z,0.00
2018-06-05T00:50:16.627Z,0.00
2018-06-05T00:51:16.685Z,0.00
2018-06-05T00:52:16.749Z,0.00
2018-06-05T00:53:16.809Z,0.00
2018-06-05T00:54:16.871Z,0.00
2018-06-05T00:56:49.524Z,0.00
2018-06-05T00:57:49.582Z,0.00
2018-06-05T00:58:49.644Z,0.00
2018-06-05T00:59:49.717Z,0.00
2018-06-05T01:00:49.786Z,0.00
2018-06-05T01:01:49.833Z,0.00
2018-06-05T01:02:49.896Z,0.00
2018-06-05T01:03:49.953Z,0.00
2018-06-05T01:04:50.018Z,0.00
2018-06-05T01:05:50.078Z,0.00
2018-06-05T01:06:50.140Z,0.00
2018-06-05T01:07:50.203Z,0.00
2018-06-05T01:08:50.263Z,0.00
2018-06-05T01:09:50.325Z,0.00
2018-06-05T01:10:50.387Z,0.00
2018-06-05T01:11:50.448Z,0.00
2018-06-05T01:12:50.512Z,0.00
2018-06-05T01:13:50.573Z,0.00
2018-06-05T01:14:50.638Z,0.00
2018-06-05T01:15:50.697Z,0.00
2018-06-05T01:16:50.758Z,0.00
2018-06-05T01:17:50.820Z,0.00
2018-06-05T01:18:50.882Z,0.00
2018-06-05T01:19:50.943Z,0.00
2018-06-05T01:20:51.006Z,0.00
2018-06-05T01:21:51.067Z,0.00
2018-06-05T01:22:51.129Z,0.00
2018-06-05T01:23:51.191Z,0.00
2018-06-05T01:24:51.252Z,0.00
2018-06-05T01:25:51.314Z,0.00
2018-06-05T01:26:51.376Z,0.00
2018-06-05T01:27:51.437Z,0.00
2018-06-05T01:28:51.500Z,0.00
2018-06-05T01:29:51.561Z,0.00
2018-06-05T01:30:51.623Z,0.00
2018-06-05T01:31:51.684Z,0.00
2018-06-05T01:32:51.746Z,0.00
2018-06-05T01:33:51.809Z,0.00
2018-06-05T01:34:51.870Z,0.00
2018-06-05T01:35:51.931Z,0.00
2018-06-05T01:36:51.992Z,0.00
2018-06-05T01:37:52.055Z,0.00
2018-06-05T01:38:52.117Z,0.00
2018-06-05T01:39:52.185Z,0.00
2018-06-05T01:40:52.245Z,0.00
2018-06-05T01:41:52.302Z,0.00
2018-06-05T01:42:52.372Z,0.00
2018-06-05T01:43:52.431Z,0.00
2018-06-05T01:44:52.487Z,0.00
2018-06-05T01:45:52.550Z,0.00
2018-06-05T01:46:52.611Z,0.00
2018-06-05T01:47:52.675Z,0.00
2018-06-05T01:48:52.734Z,0.00
2018-06-05T01:49:52.796Z,0.00
2018-06-05T01:50:52.860Z,0.00
2018-06-05T01:51:52.919Z,0.00
2018-06-05T01:52:53.232Z,0.00
2018-06-05T01:53:53.043Z,0.00
2018-06-05T01:54:53.120Z,0.00
2018-06-05T01:55:53.170Z,0.00
2018-06-05T01:56:53.227Z,0.00
2018-06-05T01:57:53.293Z,0.00
2018-06-05T01:58:53.351Z,0.00
2018-06-05T01:59:53.427Z,0.00
2018-06-05T02:00:53.474Z,0.00
2018-06-05T02:01:53.536Z,0.00
2018-06-05T02:02:53.598Z,0.00
2018-06-05T02:03:53.659Z,0.00
2018-06-05T02:04:53.721Z,0.00
2018-06-05T02:05:53.783Z,0.00
2018-06-05T02:06:53.845Z,0.00
2018-06-05T02:07:53.906Z,0.00
2018-06-05T02:08:53.968Z,0.00
2018-06-05T02:09:54.030Z,0.00
2018-06-05T02:10:54.092Z,0.00
2018-06-05T02:11:54.151Z,0.00
2018-06-05T02:12:54.214Z,0.00
2018-06-05T02:13:54.278Z,0.00
2018-06-05T02:14:54.337Z,0.00
2018-06-05T02:15:54.398Z,0.00
2018-06-05T02:16:54.461Z,0.00
2018-06-05T02:17:54.520Z,0.00
2018-06-05T02:18:54.585Z,0.00
2018-06-05T02:19:54.644Z,0.00
2018-06-05T02:20:54.706Z,0.00
2018-06-05T02:21:54.768Z,0.00
2018-06-05T02:22:54.829Z,0.00
2018-06-05T02:23:54.892Z,0.00
2018-06-05T02:24:54.952Z,0.00
2018-06-05T02:25:55.015Z,0.00
2018-06-05T02:26:55.075Z,0.00
2018-06-05T02:27:55.137Z,0.00
2018-06-05T02:28:55.200Z,0.00
2018-06-05T02:29:55.261Z,0.00
2018-06-05T02:30:55.323Z,0.00
2018-06-05T02:31:55.383Z,0.00
2018-06-05T02:32:55.446Z,0.00
2018-06-05T02:33:55.507Z,0.00
2018-06-05T02:34:55.569Z,0.00
2018-06-05T02:35:55.630Z,0.00
2018-06-05T02:36:55.694Z,0.00
2018-06-05T02:37:55.753Z,0.00
2018-06-05T02:38:55.815Z,0.00
2018-06-05T02:39:55.883Z,0.00
2018-06-05T02:40:55.942Z,0.00
2018-06-05T02:41:55.999Z,0.00
2018-06-05T02:42:56.060Z,0.00
2018-06-05T02:43:56.121Z,4.00
2018-06-05T02:44:56.183Z,4.00
2018-06-05T02:45:56.257Z,4.00
2018-06-05T02:46:56.305Z,4.00
2018-06-05T02:47:56.367Z,0.00
2018-06-05T02:48:56.429Z,4.00
2018-06-05T02:49:56.491Z,4.00
2018-06-05T02:50:56.553Z,8.00
2018-06-05T02:51:56.623Z,4.00
2018-06-05T02:52:56.675Z,8.00
2018-06-05T02:53:56.736Z,8.00
2018-06-05T02:54:56.815Z,12.00
2018-06-05T02:55:56.859Z,12.00
2018-06-05T02:56:56.919Z,12.00
2018-06-05T02:57:56.983Z,12.00
2018-06-05T02:58:57.044Z,16.00
2018-06-05T02:59:57.121Z,16.00
2018-06-05T03:00:57.217Z,20.00
2018-06-05T03:01:57.229Z,24.00
2018-06-05T03:02:57.297Z,24.00
2018-06-05T03:03:57.355Z,32.00
2018-06-05T03:04:57.412Z,32.00
2018-06-05T03:05:57.474Z,40.00
2018-06-05T03:06:57.537Z,44.00
2018-06-05T03:07:57.600Z,48.00
2018-06-05T03:08:57.657Z,52.00
2018-06-05T03:09:57.719Z,60.00
2018-06-05T03:10:57.780Z,68.00
2018-06-05T03:11:57.841Z,76.00
2018-06-05T03:12:57.902Z,84.00
2018-06-05T03:13:57.965Z,92.00
2018-06-05T03:14:58.026Z,100.00
2018-06-05T03:15:58.090Z,112.00
2018-06-05T03:16:58.148Z,124.00
2018-06-05T03:17:58.209Z,136.00
2018-06-05T03:18:58.272Z,148.00
2018-06-05T03:19:58.332Z,160.00
2018-06-05T03:20:58.394Z,176.00
2018-06-05T03:21:58.454Z,188.00
2018-06-05T03:22:58.516Z,208.00
2018-06-05T03:23:58.577Z,220.00
2018-06-05T03:24:58.639Z,240.00
2018-06-05T03:25:58.705Z,256.00
2018-06-05T03:26:58.762Z,272.00
2018-06-05T03:27:58.821Z,292.00
2018-06-05T03:28:58.883Z,312.00
2018-06-05T03:29:58.946Z,332.00
2018-06-05T03:30:59.008Z,352.00
2018-06-05T03:31:59.068Z,372.00
2018-06-05T03:32:59.128Z,400.00
2018-06-05T03:33:59.197Z,424.00
2018-06-05T03:34:59.253Z,448.00
2018-06-05T03:35:59.313Z,472.00
2018-06-05T03:36:59.375Z,496.00
2018-06-05T03:37:59.436Z,528.00
2018-06-05T03:38:59.497Z,552.00
2018-06-05T03:39:59.559Z,576.00
2018-06-05T03:40:59.620Z,596.00
2018-06-05T03:41:59.684Z,632.00
2018-06-05T03:42:59.744Z,664.00
2018-06-05T03:43:59.804Z,700.00
2018-06-05T03:44:59.865Z,728.00
2018-06-05T03:45:59.926Z,756.00
2018-06-05T03:46:59.989Z,792.00
2018-06-05T03:48:00.050Z,824.00
2018-06-05T03:49:00.111Z,852.00
2018-06-05T03:50:00.172Z,884.00
2018-06-05T03:51:00.234Z,920.00
2018-06-05T03:52:00.299Z,956.00
2018-06-05T03:53:00.356Z,996.00
2018-06-05T03:54:00.420Z,1032.00
2018-06-05T03:55:00.479Z,1068.00
2018-06-05T03:56:00.540Z,1096.00
2018-06-05T03:57:00.602Z,1132.00
2018-06-05T03:58:00.664Z,1168.00
2018-06-05T03:59:00.726Z,1200.00
2018-06-05T04:00:00.788Z,1236.00
2018-06-05T04:01:00.848Z,1272.00
2018-06-05T04:02:00.911Z,1312.00
2018-06-05T04:03:00.971Z,1344.00
2018-06-05T04:04:01.032Z,1380.00
2018-06-05T04:05:01.096Z,1416.00
2018-06-05T04:06:01.531Z,1456.00
2018-06-05T04:07:01.219Z,1500.00
2018-06-05T04:08:01.280Z,1544.00
2018-06-05T04:09:01.341Z,1580.00
2018-06-05T04:10:01.403Z,1616.00
2018-06-05T04:11:01.465Z,1660.00
2018-06-05T04:12:01.526Z,1696.00
2018-06-05T04:13:01.588Z,1736.00
2018-06-05T04:14:01.650Z,1780.00
2018-06-05T04:15:01.711Z,1824.00
2018-06-05T04:16:01.778Z,1864.00
2018-06-05T04:17:01.834Z,1904.00
2018-06-05T04:18:01.899Z,1956.00
2018-06-05T04:19:01.957Z,2016.00
2018-06-05T04:20:02.018Z,2068.00
2018-06-05T04:21:02.081Z,2108.00
2018-06-05T04:22:02.141Z,2148.00
2018-06-05T04:23:02.206Z,2192.00
2018-06-05T04:24:02.263Z,2236.00
2018-06-05T04:25:02.327Z,2272.00
2018-06-05T04:26:02.388Z,2312.00
2018-06-05T04:27:02.468Z,2372.00
2018-06-05T04:28:02.511Z,2400.00
2018-06-05T04:29:02.582Z,2432.00
2018-06-05T04:30:02.651Z,2476.00
2018-06-05T04:31:02.699Z,2524.00
2018-06-05T04:32:02.757Z,2580.00
2018-06-05T04:33:02.817Z,2632.00
2018-06-05T04:34:02.881Z,2672.00
2018-06-05T04:35:02.942Z,2712.00
2018-06-05T04:36:03.022Z,2756.00
2018-06-05T04:37:03.066Z,2800.00
2018-06-05T04:38:03.128Z,2848.00
2018-06-05T04:39:03.190Z,2892.00
2018-06-05T04:40:03.250Z,2928.00
2018-06-05T04:41:03.316Z,2972.00
2018-06-05T04:42:03.375Z,3016.00
2018-06-05T04:43:03.437Z,3060.00
2018-06-05T04:44:03.497Z,3092.00
2018-06-05T04:45:03.560Z,3120.00
2018-06-05T04:46:03.621Z,3152.00
2018-06-05T04:47:03.683Z,3188.00
2018-06-05T04:48:03.748Z,3240.00
2018-06-05T04:49:03.807Z,3276.00
2018-06-05T04:50:03.870Z,3316.00
2018-06-05T04:51:03.931Z,3364.00
2018-06-05T04:52:03.992Z,3416.00
2018-06-05T04:53:04.054Z,3464.00
2018-06-05T04:54:04.115Z,3516.00
2018-06-05T04:55:04.178Z,3568.00
2018-06-05T04:56:04.239Z,3608.00
2018-06-05T04:57:04.301Z,3624.00
2018-06-05T04:58:04.363Z,3668.00
2018-06-05T04:59:04.427Z,3728.00
2018-06-05T05:00:04.489Z,3768.00
2018-06-05T05:01:04.547Z,3824.00
2018-06-05T05:02:04.610Z,3884.00
2018-06-05T05:03:04.673Z,3932.00
2018-06-05T05:04:04.735Z,3992.00
2018-06-05T05:05:04.796Z,4068.00
2018-06-05T05:06:04.860Z,4128.00
2018-06-05T05:07:04.921Z,4196.00
2018-06-05T05:08:04.981Z,4264.00
2018-06-05T05:09:05.045Z,4368.00
2018-06-05T05:10:05.109Z,4480.00
2018-06-05T05:11:05.170Z,4572.00
2018-06-05T05:12:05.230Z,4572.00
2018-06-05T05:13:05.295Z,4600.00
2018-06-05T05:14:05.354Z,4652.00
2018-06-05T05:15:05.417Z,4700.00
2018-06-05T05:16:05.480Z,4740.00
2018-06-05T05:17:05.541Z,4832.00
2018-06-05T05:18:06.213Z,4912.00
2018-06-05T05:19:05.977Z,4964.00
2018-06-05T05:20:06.357Z,5100.00
2018-06-05T05:21:06.316Z,5336.00
2018-06-05T05:22:06.104Z,5480.00
2018-06-05T05:23:05.918Z,5632.00
2018-06-05T05:24:05.978Z,5892.00
2018-06-05T05:25:06.039Z,6172.00
2018-06-05T05:26:06.106Z,6360.00
2018-06-05T05:27:06.172Z,6400.00
2018-06-05T05:28:06.227Z,6352.00
2018-06-05T05:29:06.543Z,6428.00
2018-06-05T05:30:06.353Z,6400.00
2018-06-05T05:31:06.415Z,6372.00
2018-06-05T05:32:06.478Z,6584.00
2018-06-05T05:33:06.539Z,6552.00
2018-06-05T05:34:06.601Z,6772.00
2018-06-05T05:35:06.664Z,6932.00
2018-06-05T05:36:06.746Z,6944.00
2018-06-05T05:37:06.790Z,7396.00
2018-06-05T05:38:06.852Z,7716.00
2018-06-05T05:39:07.773Z,7864.00
2018-06-05T05:40:06.980Z,8120.00
2018-06-05T05:41:07.039Z,8432.00
2018-06-05T05:42:07.106Z,8748.00
2018-06-05T05:43:07.165Z,8896.00
2018-06-05T05:44:07.226Z,9020.00
2018-06-05T05:45:07.290Z,9088.00
2018-06-05T05:46:07.355Z,9344.00
2018-06-05T05:47:07.443Z,9208.00
2018-06-05T05:48:07.482Z,8760.00
2018-06-05T05:49:07.542Z,8660.00
2018-06-05T05:50:07.605Z,8468.00
2018-06-05T05:51:07.669Z,8464.00
2018-06-05T05:52:07.731Z,8252.00
2018-06-05T05:53:07.794Z,8248.00
2018-06-05T05:54:08.233Z,8492.00
2018-06-05T05:55:08.267Z,8548.00
2018-06-05T05:56:07.982Z,8180.00
2018-06-05T05:57:08.048Z,7936.00
2018-06-05T05:58:08.110Z,7772.00
2018-06-05T05:59:08.173Z,7568.00
2018-06-05T06:00:08.236Z,7544.00
2018-06-05T06:01:08.332Z,6860.00
2018-06-05T06:02:08.391Z,6176.00
2018-06-05T06:03:08.426Z,6112.00
2018-06-05T06:04:08.492Z,5904.00
2018-06-05T06:05:08.553Z,5692.00
2018-06-05T06:06:08.616Z,5800.00
2018-06-05T06:07:08.680Z,5616.00
2018-06-05T06:08:08.742Z,5424.00
2018-06-05T06:09:08.806Z,5500.00
2018-06-05T06:10:08.870Z,5488.00
2018-06-05T06:11:08.933Z,5428.00
2018-06-05T06:12:08.995Z,5372.00
2018-06-05T06:13:09.058Z,5712.00
2018-06-05T06:14:09.122Z,6136.00
2018-06-05T06:15:09.186Z,6312.00
2018-06-05T06:16:09.248Z,6220.00
2018-06-05T06:17:09.314Z,6116.00
2018-06-05T06:18:09.388Z,6248.00
2018-06-05T06:19:09.439Z,6540.00
2018-06-05T06:20:09.500Z,6680.00
2018-06-05T06:21:09.564Z,6680.00
2018-06-05T06:22:09.630Z,6776.00
2018-06-05T06:23:09.694Z,7100.00
2018-06-05T06:24:10.531Z,7352.00
2018-06-05T06:25:09.822Z,7152.00
2018-06-05T06:26:09.883Z,7260.00
2018-06-05T06:27:09.945Z,7656.00
2018-06-05T06:28:10.162Z,7620.00
2018-06-05T06:29:10.072Z,7500.00
2018-06-05T06:30:10.136Z,7592.00
2018-06-05T06:31:10.205Z,7824.00
2018-06-05T06:32:10.263Z,7908.00
2018-06-05T06:33:10.325Z,8332.00
2018-06-05T06:34:10.418Z,8780.00
2018-06-05T06:35:10.453Z,8752.00
2018-06-05T06:36:10.517Z,8792.00
2018-06-05T06:37:10.579Z,8956.00
2018-06-05T06:38:10.642Z,9356.00
2018-06-05T06:39:10.705Z,9620.00
2018-06-05T06:40:11.164Z,9856.00
2018-06-05T06:41:11.414Z,10172.00
2018-06-05T06:42:10.896Z,10276.00
2018-06-05T06:43:10.962Z,10600.00
2018-06-05T06:44:11.025Z,10592.00
2018-06-05T06:45:11.090Z,10820.00
2018-06-05T06:46:15.060Z,11756.00
2018-06-05T06:47:11.214Z,12408.00
2018-06-05T06:48:11.277Z,12264.00
2018-06-05T06:49:11.342Z,12524.00
2018-06-05T06:50:11.405Z,12532.00
2018-06-05T06:51:11.470Z,12736.00
2018-06-05T06:52:11.530Z,13592.00
2018-06-05T06:53:11.596Z,14388.00
2018-06-05T06:54:11.669Z,14728.00
2018-06-05T06:55:11.723Z,14916.00
2018-06-05T06:56:11.787Z,15064.00
2018-06-05T06:57:11.851Z,14888.00
2018-06-05T06:58:12.123Z,14872.00
2018-06-05T06:59:11.979Z,14736.00
2018-06-05T07:00:12.043Z,14568.00
2018-06-05T07:01:12.107Z,14856.00
2018-06-05T07:02:12.172Z,14472.00
2018-06-05T07:03:12.237Z,14324.00
2018-06-05T07:04:12.299Z,14956.00
2018-06-05T07:05:12.386Z,15636.00
2018-06-05T07:06:12.429Z,16108.00
2018-06-05T07:07:12.493Z,17536.00
2018-06-05T07:08:12.556Z,18016.00
2018-06-05T07:09:12.622Z,17376.00
2018-06-05T07:10:12.687Z,16584.00
2018-06-05T07:11:12.752Z,16660.00
2018-06-05T07:12:12.826Z,17136.00
2018-06-05T07:13:12.881Z,17080.00
2018-06-05T07:14:12.950Z,16272.00
2018-06-05T07:15:13.693Z,15696.00
2018-06-05T07:16:13.653Z,15204.00
2018-06-05T07:17:13.142Z,15176.00
2018-06-05T07:18:13.679Z,14960.00
2018-06-05T07:19:13.269Z,14672.00
2018-06-05T07:20:13.333Z,14904.00
2018-06-05T07:21:13.935Z,15492.00
2018-06-05T07:22:13.482Z,15508.00
2018-06-05T07:23:13.548Z,15648.00
2018-06-05T07:24:13.603Z,16124.00
2018-06-05T07:25:13.662Z,16136.00
2018-06-05T07:26:13.724Z,15840.00
2018-06-05T07:27:13.807Z,15892.00
2018-06-05T07:28:13.855Z,16128.00
2018-06-05T07:29:13.920Z,16720.00
2018-06-05T07:30:14.047Z,16676.00
2018-06-05T07:31:14.051Z,16544.00
2018-06-05T07:32:14.116Z,16484.00
2018-06-05T07:33:14.181Z,16568.00
2018-06-05T07:34:14.247Z,17952.00
2018-06-05T07:35:14.313Z,18752.00
2018-06-05T07:36:14.376Z,18752.00
2018-06-05T07:37:14.446Z,18624.00
2018-06-05T07:38:14.528Z,18304.00
2018-06-05T07:39:14.594Z,18240.00
2018-06-05T07:40:14.665Z,17176.00
2018-06-05T07:41:14.725Z,16548.00
2018-06-05T07:42:14.789Z,16700.00
2018-06-05T07:43:14.852Z,17696.00
2018-06-05T07:44:14.922Z,18752.00
2018-06-05T07:45:15.314Z,19392.00
2018-06-05T07:46:15.832Z,19072.00
2018-06-05T07:47:15.123Z,18496.00
2018-06-05T07:48:15.204Z,18368.00
2018-06-05T07:49:15.940Z,18976.00
2018-06-05T07:50:15.311Z,19936.00
2018-06-05T07:51:15.763Z,20544.00
2018-06-05T07:52:16.023Z,20608.00
2018-06-05T07:53:15.514Z,20608.00
2018-06-05T07:54:15.602Z,20256.00
2018-06-05T07:55:15.656Z,19584.00
2018-06-05T07:56:15.718Z,19712.00
2018-06-05T07:57:15.760Z,20512.00
2018-06-05T07:58:15.827Z,21088.00
2018-06-05T07:59:15.893Z,21696.00
2018-06-05T08:00:15.960Z,21952.00
2018-06-05T08:01:16.028Z,21984.00
2018-06-05T08:02:16.092Z,22208.00
2018-06-05T08:03:16.160Z,22208.00
2018-06-05T08:04:16.229Z,22176.00
2018-06-05T08:05:16.291Z,21824.00
2018-06-05T08:06:16.609Z,21504.00
2018-06-05T08:07:16.425Z,21088.00
2018-06-05T08:08:16.490Z,20544.00
2018-06-05T08:09:16.557Z,20832.00
2018-06-05T08:10:16.622Z,21792.00
2018-06-05T08:11:16.693Z,22592.00
2018-06-05T08:12:16.756Z,22528.00
2018-06-05T08:13:17.340Z,22176.00
2018-06-05T08:14:16.891Z,22336.00
2018-06-05T08:15:16.960Z,22176.00
2018-06-05T08:16:17.023Z,22048.00
2018-06-05T08:17:17.091Z,22176.00
2018-06-05T08:18:17.158Z,22560.00
2018-06-05T08:19:17.225Z,23904.00
2018-06-05T08:20:17.290Z,24640.00
2018-06-05T08:21:17.359Z,24000.00
2018-06-05T08:22:17.424Z,24384.00
2018-06-05T08:23:17.494Z,24864.00
2018-06-05T08:24:17.974Z,24832.00
2018-06-05T08:25:17.626Z,25120.00
2018-06-05T08:26:17.694Z,25664.00
2018-06-05T08:27:17.761Z,25728.00
2018-06-05T08:28:17.827Z,25408.00
2018-06-05T08:29:17.895Z,24864.00
2018-06-05T08:30:17.964Z,24256.00
2018-06-05T08:31:18.032Z,23488.00
2018-06-05T08:32:18.096Z,22912.00
2018-06-05T08:33:18.163Z,23392.00
2018-06-05T08:34:18.236Z,24384.00
2018-06-05T08:35:18.299Z,24992.00
2018-06-05T08:36:18.366Z,25216.00
2018-06-05T08:37:18.434Z,26368.00
2018-06-05T08:38:18.502Z,26752.00
2018-06-05T08:39:18.569Z,27392.00
2018-06-05T08:40:18.635Z,27648.00
2018-06-05T08:41:18.703Z,27008.00
2018-06-05T08:42:18.771Z,26464.00
2018-06-05T08:43:18.839Z,26208.00
2018-06-05T08:44:18.906Z,26208.00
2018-06-05T08:45:18.975Z,26592.00
2018-06-05T08:46:19.043Z,27072.00
2018-06-05T08:47:19.110Z,27808.00
2018-06-05T08:48:19.177Z,28224.00
2018-06-05T08:49:19.246Z,27680.00
2018-06-05T08:50:19.312Z,27680.00
2018-06-05T08:51:19.380Z,27744.00
2018-06-05T08:52:19.447Z,28096.00
2018-06-05T08:53:19.517Z,28928.00
2018-06-05T08:54:19.585Z,29088.00
2018-06-05T08:55:19.650Z,29536.00
2018-06-05T08:56:19.720Z,29536.00
2018-06-05T08:57:19.785Z,29696.00
2018-06-05T08:58:19.855Z,29024.00
2018-06-05T08:59:19.923Z,29056.00
2018-06-05T09:00:19.989Z,28576.00
2018-06-05T09:01:20.058Z,29600.00
2018-06-05T09:02:20.125Z,30400.00
2018-06-05T09:03:20.195Z,30208.00
2018-06-05T09:04:20.262Z,29632.00
2018-06-05T09:05:20.370Z,29632.00
2018-06-05T09:06:20.398Z,29728.00
2018-06-05T09:07:20.470Z,30752.00
2018-06-05T09:08:20.842Z,30112.00
2018-06-05T09:09:20.752Z,29472.00
2018-06-05T09:10:20.671Z,29152.00
2018-06-05T09:11:20.738Z,29120.00
2018-06-05T09:12:20.807Z,29056.00
2018-06-05T09:13:21.453Z,29472.00
2018-06-05T09:14:21.800Z,30144.00
2018-06-05T09:15:21.625Z,33056.00
2018-06-05T09:16:21.807Z,33312.00
2018-06-05T09:17:22.080Z,33216.00
2018-06-05T09:19:21.288Z,31968.00
2018-06-05T09:20:21.358Z,31712.00
2018-06-05T09:21:21.422Z,31392.00
2018-06-05T09:22:21.524Z,31488.00
2018-06-05T09:23:21.561Z,33088.00
2018-06-05T09:24:21.630Z,33824.00
2018-06-05T09:25:21.697Z,33184.00
2018-06-05T09:26:21.767Z,32928.00
2018-06-05T09:27:21.836Z,34016.00
2018-06-05T09:28:22.690Z,33856.00
2018-06-05T09:29:22.736Z,32128.00
2018-06-05T09:30:22.726Z,32256.00
2018-06-05T09:32:22.178Z,32288.00
2018-06-05T09:33:22.247Z,30336.00
2018-06-05T09:34:22.331Z,30336.00
2018-06-05T09:35:22.385Z,31040.00
2018-06-05T09:36:22.453Z,32416.00
2018-06-05T09:37:22.522Z,33184.00
2018-06-05T09:38:23.120Z,32480.00
2018-06-05T09:39:22.689Z,33408.00
2018-06-05T09:40:22.730Z,33312.00
2018-06-05T09:41:22.798Z,31552.00
2018-06-05T09:42:24.214Z,30784.00
2018-06-05T09:43:24.020Z,29728.00
2018-06-05T09:44:23.701Z,29408.00
2018-06-05T09:45:23.737Z,30496.00
2018-06-05T09:46:23.908Z,30080.00
2018-06-05T09:47:23.920Z,30912.00
2018-06-05T09:48:24.012Z,32672.00
2018-06-05T09:49:24.108Z,29152.00
2018-06-05T09:50:24.134Z,28928.00
2018-06-05T09:51:23.893Z,31744.00
2018-06-05T09:52:23.998Z,31808.00
2018-06-05T09:53:24.016Z,29344.00
2018-06-05T09:54:24.219Z,29792.00
2018-06-05T09:55:24.431Z,30112.00
2018-06-05T09:56:24.288Z,28544.00
2018-06-05T09:57:23.897Z,30304.00
2018-06-05T09:58:24.208Z,31584.00
2018-06-05T09:59:24.036Z,31808.00
2018-06-05T10:00:24.104Z,32384.00
2018-06-05T10:01:24.174Z,31904.00
2018-06-05T10:02:24.246Z,35392.00
2018-06-05T10:03:24.316Z,48352.00
2018-06-05T10:04:24.380Z,58464.00
2018-06-05T10:05:24.451Z,47392.00
2018-06-05T10:06:24.522Z,64160.00
2018-06-05T10:07:24.590Z,51456.00
2018-06-05T10:08:25.170Z,63968.00
2018-06-05T10:09:24.730Z,62240.00
2018-06-05T10:10:24.799Z,63776.00
2018-06-05T10:11:24.871Z,62016.00
2018-06-05T10:12:24.939Z,63648.00
2018-06-05T10:13:25.062Z,63296.00
2018-06-05T10:14:25.086Z,48992.00
2018-06-05T10:15:25.152Z,49536.00
2018-06-05T10:16:25.223Z,54656.00
2018-06-05T10:17:25.293Z,47104.00
2018-06-05T10:18:25.366Z,48576.00
2018-06-05T10:19:25.439Z,57824.00
2018-06-05T10:20:25.563Z,63104.00
2018-06-05T10:21:25.585Z,65120.00
2018-06-05T10:22:25.649Z,65376.00
2018-06-05T10:23:25.722Z,63104.00
2018-06-05T10:24:25.792Z,65184.00
2018-06-05T10:25:25.864Z,67296.00
2018-06-05T10:26:25.937Z,58976.00
2018-06-05T10:27:26.011Z,57408.00
2018-06-05T10:28:26.080Z,65920.00
2018-06-05T10:29:26.153Z,63776.00
2018-06-05T10:30:26.226Z,66432.00
2018-06-05T10:31:26.298Z,63008.00
2018-06-05T10:32:26.373Z,62432.00
2018-06-05T10:33:26.443Z,65504.00
2018-06-05T10:34:26.517Z,66304.00
2018-06-05T10:35:26.594Z,62656.00
2018-06-05T10:36:26.662Z,62912.00
2018-06-05T10:37:26.735Z,63680.00
2018-06-05T10:38:26.809Z,65600.00
2018-06-05T10:39:26.882Z,61984.00
2018-06-05T10:40:26.954Z,66304.00
2018-06-05T10:41:27.032Z,65792.00
2018-06-05T10:42:27.100Z,66240.00
2018-06-05T10:43:27.176Z,63424.00
2018-06-05T10:44:27.248Z,63904.00
2018-06-05T10:45:27.324Z,62048.00
2018-06-05T10:46:27.396Z,60576.00
2018-06-05T10:47:27.469Z,63488.00
2018-06-05T10:48:27.542Z,62528.00
2018-06-05T10:49:27.616Z,62112.00
2018-06-05T10:50:28.274Z,62080.00
2018-06-05T10:51:28.116Z,61088.00
2018-06-05T10:52:27.837Z,62464.00
2018-06-05T10:53:27.913Z,59872.00
2018-06-05T10:54:27.987Z,59968.00
2018-06-05T10:55:28.064Z,58816.00
2018-06-05T10:56:28.139Z,58880.00
2018-06-05T10:57:28.792Z,58464.00
2018-06-05T10:58:28.286Z,58016.00
2018-06-05T10:59:28.368Z,57088.00
2018-06-05T11:00:28.510Z,56672.00
2018-06-05T11:01:28.508Z,55904.00
2018-06-05T11:02:28.733Z,56032.00
2018-06-05T11:03:28.658Z,55520.00
2018-06-05T11:04:28.734Z,53920.00
2018-06-05T11:05:28.808Z,53920.00
2018-06-05T11:06:28.883Z,53216.00
2018-06-05T11:07:28.957Z,53024.00
2018-06-05T11:08:29.032Z,52224.00
2018-06-05T11:09:29.107Z,52736.00
2018-06-05T11:10:29.182Z,50880.00
2018-06-05T11:11:29.257Z,50944.00
2018-06-05T11:12:29.332Z,51168.00
2018-06-05T11:13:29.411Z,50624.00
2018-06-05T11:14:29.553Z,49664.00
2018-06-05T11:15:29.560Z,50528.00
2018-06-05T11:16:29.632Z,50016.00
2018-06-05T11:17:29.707Z,50080.00
2018-06-05T11:18:29.782Z,49440.00
2018-06-05T11:19:29.858Z,49248.00
2018-06-05T11:20:29.932Z,49152.00
2018-06-05T11:21:30.008Z,48928.00
2018-06-05T11:22:30.084Z,48992.00
2018-06-05T11:23:30.158Z,48608.00
2018-06-05T11:24:30.837Z,48096.00
2018-06-05T11:25:30.310Z,47616.00
2018-06-05T11:26:30.383Z,48608.00
2018-06-05T11:27:30.459Z,47936.00
2018-06-05T11:28:30.533Z,47776.00
2018-06-05T11:29:30.609Z,47968.00
2018-06-05T11:30:31.004Z,48000.00
2018-06-05T11:31:30.759Z,47488.00
2018-06-05T11:32:30.836Z,47680.00
2018-06-05T11:33:30.909Z,47744.00
2018-06-05T11:34:30.986Z,47488.00
2018-06-05T11:35:31.370Z,47712.00
2018-06-05T11:36:31.139Z,47520.00
2018-06-05T11:37:31.211Z,47200.00
2018-06-05T11:38:31.288Z,47456.00
2018-06-05T11:39:31.369Z,47936.00
2018-06-05T11:40:31.437Z,48448.00
2018-06-05T11:41:31.513Z,48224.00
2018-06-05T11:42:31.611Z,49312.00
2018-06-05T11:43:31.667Z,49056.00
2018-06-05T11:44:31.740Z,48800.00
2018-06-05T11:45:31.821Z,49920.00
2018-06-05T11:46:31.900Z,50016.00
2018-06-05T11:47:31.971Z,50560.00
2018-06-05T11:48:32.294Z,50848.00
2018-06-05T11:49:32.119Z,51392.00
2018-06-05T11:50:32.196Z,52640.00
2018-06-05T11:51:32.279Z,54464.00
2018-06-05T11:52:32.347Z,56192.00
2018-06-05T11:53:32.423Z,57408.00
2018-06-05T11:54:32.500Z,59136.00
2018-06-05T11:55:32.575Z,61888.00
2018-06-05T11:56:32.649Z,66400.00
2018-06-05T11:57:32.731Z,71744.00
2018-06-05T11:58:32.802Z,78560.00
2018-06-05T11:59:32.881Z,83840.00
2018-06-05T12:00:32.983Z,89920.00
2018-06-05T12:01:33.031Z,94752.00
2018-06-05T12:02:33.106Z,99680.00
2018-06-05T12:03:33.182Z,106400.00
2018-06-05T12:04:33.259Z,110592.00
2018-06-05T12:05:33.334Z,111360.00
2018-06-05T12:06:33.514Z,114336.00
2018-06-05T12:07:33.487Z,114112.00
2018-06-05T12:08:33.562Z,115232.00
2018-06-05T12:09:33.640Z,114784.00
2018-06-05T12:10:33.715Z,115168.00
2018-06-05T12:11:33.791Z,109504.00
2018-06-05T12:12:33.867Z,109312.00
2018-06-05T12:13:33.943Z,109088.00
2018-06-05T12:14:34.020Z,108640.00
2018-06-05T12:15:34.097Z,107968.00
2018-06-05T12:16:34.172Z,109120.00
2018-06-05T12:17:34.249Z,113216.00